createdAt,value
2022-12-18T00:00:07.829Z,1.02
2022-12-18T00:02:41.839Z,0.98
2022-12-18T00:05:11.392Z,1.04
2022-12-18T00:07:39.900Z,0.92
2022-12-18T00:10:09.010Z,0.91
2022-12-18T00:12:37.027Z,0.97
2022-12-18T00:15:05.716Z,1.04
2022-12-18T00:17:33.723Z,1.04
2022-12-18T00:20:01.751Z,0.96
2022-12-18T00:22:31.126Z,1.03
2022-12-18T00:24:59.124Z,0.87
2022-12-18T00:27:27.158Z,0.69
2022-12-18T00:29:55.162Z,0.68
2022-12-18T00:32:23.355Z,0.86
2022-12-18T00:34:51.352Z,0.65
2022-12-18T00:37:20.448Z,0.63
2022-12-18T00:39:53.915Z,0.82
2022-12-18T00:42:39.591Z,0.78
2022-12-18T00:45:12.638Z,0.75
2022-12-18T00:47:41.605Z,0.66
2022-12-18T00:50:11.293Z,0.45
2022-12-18T00:52:39.338Z,0.68
2022-12-18T00:55:09.909Z,0.80
2022-12-18T00:57:38.029Z,0.84
2022-12-18T01:00:08.523Z,0.66
2022-12-18T01:02:36.810Z,0.66
2022-12-18T01:05:05.387Z,0.63
2022-12-18T01:07:33.402Z,0.64
2022-12-18T01:10:01.428Z,0.71
2022-12-18T01:12:30.884Z,0.25
2022-12-18T01:14:58.900Z,0.29
2022-12-18T01:17:26.944Z,0.46
2022-12-18T01:19:55.026Z,0.49
2022-12-18T01:22:23.111Z,0.50
2022-12-18T01:24:51.249Z,0.53
2022-12-18T01:27:19.321Z,0.40
2022-12-18T01:29:50.989Z,0.44
2022-12-18T01:32:21.160Z,0.33
2022-12-18T01:34:49.221Z,0.29
2022-12-18T01:37:17.213Z,0.38
2022-12-18T01:39:45.305Z,0.45
2022-12-18T01:42:16.591Z,0.46
2022-12-18T01:45:05.488Z,0.35
2022-12-18T01:47:37.641Z,0.24
2022-12-18T01:50:10.193Z,0.31
2022-12-18T01:52:39.199Z,0.25
2022-12-18T01:55:09.153Z,0.20
2022-12-18T01:57:37.817Z,0.14
2022-12-18T02:00:10.262Z,0.24
2022-12-18T02:02:42.217Z,0.22
2022-12-18T02:05:12.085Z,0.21
2022-12-18T02:07:48.441Z,0.14
2022-12-18T02:10:22.756Z,-0.02
2022-12-18T02:13:09.093Z,0.13
2022-12-18T02:15:42.708Z,0.19
2022-12-18T02:18:14.219Z,0.07
2022-12-18T02:20:48.228Z,0.08
2022-12-18T02:23:33.458Z,-0.01
2022-12-18T02:26:09.761Z,0.02
2022-12-18T02:28:43.350Z,-0.03
2022-12-18T02:31:16.921Z,-0.17
2022-12-18T02:33:47.313Z,-0.11
2022-12-18T02:36:18.291Z,-0.19
2022-12-18T02:38:48.752Z,-0.23
2022-12-18T02:41:20.483Z,-0.37
2022-12-18T02:43:58.059Z,-0.36
2022-12-18T02:46:32.584Z,-0.29
2022-12-18T02:49:16.975Z,-0.19
2022-12-18T02:51:54.798Z,-0.20
2022-12-18T02:54:35.305Z,-0.17
2022-12-18T02:57:12.732Z,-0.31
2022-12-18T02:59:49.738Z,-0.30
2022-12-18T03:02:24.725Z,-0.35
2022-12-18T03:05:00.531Z,-0.44
2022-12-18T03:07:36.154Z,-0.40
2022-12-18T03:10:08.979Z,-0.45
2022-12-18T03:12:45.075Z,-0.50
2022-12-18T03:15:18.177Z,-0.42
2022-12-18T03:17:54.147Z,-0.41
2022-12-18T03:20:24.803Z,-0.61
2022-12-18T03:23:02.100Z,-0.60
2022-12-18T03:25:32.608Z,-0.59
2022-12-18T03:28:04.237Z,-0.70
2022-12-18T03:30:34.657Z,-0.68
2022-12-18T03:33:09.929Z,-0.59
2022-12-18T03:35:42.077Z,-0.68
2022-12-18T03:38:11.266Z,-0.79
2022-12-18T03:40:55.225Z,-0.84
2022-12-18T03:43:37.090Z,-0.81
2022-12-18T03:46:10.128Z,-0.85
2022-12-18T03:48:44.152Z,-0.86
2022-12-18T03:51:20.909Z,-0.87
2022-12-18T03:53:55.605Z,-0.99
2022-12-18T03:56:32.719Z,-0.89
2022-12-18T03:59:05.181Z,-0.85
2022-12-18T04:01:37.473Z,-0.98
2022-12-18T04:04:08.114Z,-1.05
2022-12-18T04:06:40.765Z,-1.01
2022-12-18T04:09:11.710Z,-1.11
2022-12-18T04:11:45.452Z,-1.15
2022-12-18T04:14:18.264Z,-1.30
2022-12-18T04:16:50.026Z,-1.15
2022-12-18T04:19:20.548Z,-1.17
2022-12-18T04:21:51.597Z,-1.15
2022-12-18T04:24:19.786Z,-1.24
2022-12-18T04:26:59.409Z,-1.20
2022-12-18T04:29:34.514Z,-1.05
2022-12-18T04:32:02.793Z,-1.05
2022-12-18T04:34:32.772Z,-1.02
2022-12-18T04:37:00.852Z,-1.13
2022-12-18T04:39:28.853Z,-1.08
2022-12-18T04:42:01.543Z,-1.08
2022-12-18T04:44:30.050Z,-1.23
2022-12-18T04:46:59.521Z,-1.20
2022-12-18T04:49:27.550Z,-1.19
2022-12-18T04:51:55.816Z,-1.25
2022-12-18T04:54:23.809Z,-1.26
2022-12-18T04:56:52.184Z,-1.44
2022-12-18T04:59:20.515Z,-1.42
2022-12-18T05:01:48.685Z,-1.39
2022-12-18T05:04:18.218Z,-1.44
2022-12-18T05:06:46.505Z,-1.53
2022-12-18T05:09:14.545Z,-1.48
2022-12-18T05:11:42.603Z,-1.50
2022-12-18T05:14:10.613Z,-1.48
2022-12-18T05:16:38.613Z,-1.62
2022-12-18T05:19:06.682Z,-1.58
2022-12-18T05:21:36.219Z,-1.67
2022-12-18T05:24:04.412Z,-1.57
2022-12-18T05:26:32.384Z,-1.56
2022-12-18T05:29:00.392Z,-1.56
2022-12-18T05:31:28.780Z,-1.57
2022-12-18T05:33:56.867Z,-1.54
2022-12-18T05:36:24.871Z,-1.58
2022-12-18T05:38:54.264Z,-1.45
2022-12-18T05:41:22.237Z,-1.47
2022-12-18T05:43:50.242Z,-1.49
2022-12-18T05:46:20.206Z,-1.59
2022-12-18T05:48:49.191Z,-1.59
2022-12-18T05:51:20.127Z,-1.69
2022-12-18T05:53:49.175Z,-1.82
2022-12-18T05:56:21.571Z,-1.79
2022-12-18T05:58:49.732Z,-1.68
2022-12-18T06:01:19.637Z,-1.62
2022-12-18T06:03:48.128Z,-1.68
2022-12-18T06:06:17.496Z,-1.74
2022-12-18T06:08:46.649Z,-1.82
2022-12-18T06:11:15.348Z,-1.72
2022-12-18T06:13:44.737Z,-1.80
2022-12-18T06:16:12.743Z,-1.77
2022-12-18T06:18:41.018Z,-1.71
2022-12-18T06:21:09.086Z,-1.67
2022-12-18T06:23:38.041Z,-1.72
2022-12-18T06:26:08.823Z,-1.77
2022-12-18T06:28:37.175Z,-1.91
2022-12-18T06:31:07.988Z,-1.80
2022-12-18T06:33:36.121Z,-1.86
2022-12-18T06:36:06.631Z,-1.87
2022-12-18T06:38:36.350Z,-1.80
2022-12-18T06:41:09.056Z,-1.87
2022-12-18T06:43:37.651Z,-1.88
2022-12-18T06:46:08.217Z,-1.97
2022-12-18T06:48:36.448Z,-2.08
2022-12-18T06:51:05.169Z,-2.04
2022-12-18T06:53:34.132Z,-1.99
2022-12-18T06:56:09.236Z,-2.13
2022-12-18T06:58:37.793Z,-2.14
2022-12-18T07:01:09.583Z,-2.15
2022-12-18T07:03:38.570Z,-2.29
2022-12-18T07:06:07.354Z,-2.21
2022-12-18T07:08:35.379Z,-2.21
2022-12-18T07:11:06.121Z,-2.06
2022-12-18T07:13:34.165Z,-2.20
2022-12-18T07:16:16.009Z,-2.28
2022-12-18T07:18:47.121Z,-2.28
2022-12-18T07:21:17.711Z,-2.13
2022-12-18T07:23:48.866Z,-2.24
2022-12-18T07:26:21.277Z,-2.37
2022-12-18T07:28:49.490Z,-2.37
2022-12-18T07:31:22.396Z,-2.27
2022-12-18T07:33:51.561Z,-2.24
2022-12-18T07:36:25.268Z,-2.10
2022-12-18T07:38:54.031Z,-2.10
2022-12-18T07:41:22.576Z,-2.06
2022-12-18T07:43:50.883Z,-1.98
2022-12-18T07:46:20.649Z,-2.09
2022-12-18T07:48:49.983Z,-2.07
2022-12-18T07:51:19.574Z,-2.06
2022-12-18T07:53:49.698Z,-2.08
2022-12-18T07:56:30.389Z,-2.01
2022-12-18T07:58:59.887Z,-1.97
2022-12-18T08:01:31.964Z,-1.87
2022-12-18T08:04:00.200Z,-1.90
2022-12-18T08:06:28.211Z,-1.77
2022-12-18T08:08:57.301Z,-1.74
2022-12-18T08:11:27.031Z,-1.83
2022-12-18T08:13:55.655Z,-1.78
2022-12-18T08:16:25.421Z,-1.69
2022-12-18T08:18:55.595Z,-1.60
2022-12-18T08:21:25.620Z,-1.75
2022-12-18T08:23:54.999Z,-1.55
2022-12-18T08:26:23.668Z,-1.53
2022-12-18T08:28:52.515Z,-1.39
2022-12-18T08:31:21.287Z,-1.43
2022-12-18T08:33:51.415Z,-1.25
2022-12-18T08:36:21.460Z,-1.29
2022-12-18T08:38:49.676Z,-1.27
2022-12-18T08:41:19.143Z,-1.19
2022-12-18T08:44:05.068Z,-1.43
2022-12-18T08:46:38.625Z,-1.28
2022-12-18T08:49:07.726Z,-1.04
2022-12-18T08:51:37.781Z,-0.99
2022-12-18T08:54:06.980Z,-1.02
2022-12-18T08:56:35.321Z,-0.95
2022-12-18T08:59:03.699Z,-0.86
2022-12-18T09:01:32.565Z,-1.10
2022-12-18T09:04:01.747Z,-0.72
2022-12-18T09:06:29.762Z,-0.60
2022-12-18T09:08:59.563Z,-0.38
2022-12-18T09:11:30.361Z,-0.50
2022-12-18T09:13:58.881Z,-0.34
2022-12-18T09:16:32.233Z,-0.20
2022-12-18T09:19:01.555Z,-0.35
2022-12-18T09:21:31.740Z,-0.38
2022-12-18T09:24:02.957Z,-0.40
2022-12-18T09:26:31.631Z,-0.09
2022-12-18T09:28:59.667Z,-0.14
2022-12-18T09:31:27.714Z,-0.19
2022-12-18T09:33:57.293Z,0.24
2022-12-18T09:36:25.398Z,0.37
2022-12-18T09:38:54.202Z,0.45
2022-12-18T09:41:38.347Z,0.49
2022-12-18T09:44:14.747Z,0.63
2022-12-18T09:46:46.789Z,0.79
2022-12-18T09:49:19.713Z,0.76
2022-12-18T09:51:54.998Z,0.48
2022-12-18T09:54:27.427Z,0.72
2022-12-18T09:56:57.444Z,0.86
2022-12-18T09:59:29.184Z,1.16
2022-12-18T10:01:58.734Z,0.96
2022-12-18T10:04:32.971Z,1.18
2022-12-18T10:07:09.400Z,1.27
2022-12-18T10:09:43.562Z,1.48
2022-12-18T10:12:23.395Z,1.72
2022-12-18T10:14:57.305Z,1.82
2022-12-18T10:17:35.906Z,1.87
2022-12-18T10:20:07.464Z,1.79
2022-12-18T10:22:49.842Z,1.75
2022-12-18T10:25:26.315Z,1.78
2022-12-18T10:27:59.286Z,2.26
2022-12-18T10:30:27.983Z,2.75
2022-12-18T10:32:57.199Z,3.36
2022-12-18T10:35:27.783Z,3.89
2022-12-18T10:38:07.856Z,4.46
2022-12-18T10:40:50.715Z,5.50
2022-12-18T10:43:23.999Z,5.63
2022-12-18T10:46:14.063Z,6.25
2022-12-18T10:48:50.000Z,6.56
2022-12-18T10:51:22.956Z,6.71
2022-12-18T10:53:56.632Z,6.63
2022-12-18T10:56:26.920Z,5.46
2022-12-18T10:59:01.744Z,5.20
2022-12-18T11:01:47.545Z,5.23
2022-12-18T11:04:21.115Z,4.80
2022-12-18T11:06:57.902Z,4.47
2022-12-18T11:09:27.829Z,3.87
2022-12-18T11:11:58.169Z,3.62
2022-12-18T11:14:29.676Z,3.82
2022-12-18T11:19:55.225Z,3.35
2022-12-18T11:22:27.434Z,3.53
2022-12-18T11:27:51.430Z,3.41
2022-12-18T11:30:26.521Z,3.60
2022-12-18T11:32:57.977Z,3.72
2022-12-18T11:35:36.758Z,3.69
2022-12-18T11:38:12.913Z,3.64
2022-12-18T11:40:46.148Z,3.42
2022-12-18T11:43:18.974Z,3.33
2022-12-18T11:45:54.815Z,3.36
2022-12-18T11:48:27.084Z,3.32
2022-12-18T11:50:56.800Z,3.32
2022-12-18T11:53:26.327Z,3.15
2022-12-18T11:56:21.869Z,2.89
2022-12-18T11:58:55.150Z,3.04
2022-12-18T12:01:44.009Z,2.85
2022-12-18T12:04:43.178Z,3.13
2022-12-18T12:07:23.373Z,3.35
2022-12-18T12:10:01.874Z,3.24
2022-12-18T12:12:51.164Z,3.26
2022-12-18T12:15:36.773Z,3.43
2022-12-18T12:18:15.780Z,3.55
2022-12-18T12:20:53.409Z,3.40
2022-12-18T12:23:32.379Z,3.43
2022-12-18T12:26:05.065Z,3.53
2022-12-18T12:28:58.568Z,3.54
2022-12-18T12:31:39.589Z,3.40
2022-12-18T12:34:19.076Z,3.38
2022-12-18T12:36:59.885Z,3.32
2022-12-18T12:39:34.066Z,3.28
2022-12-18T12:42:20.197Z,3.18
2022-12-18T12:44:56.205Z,3.23
2022-12-18T12:47:28.920Z,3.01
2022-12-18T12:50:00.754Z,3.14
2022-12-18T12:52:36.342Z,2.91
2022-12-18T12:55:14.459Z,2.98
2022-12-18T12:57:48.024Z,2.98
2022-12-18T13:00:20.245Z,3.04
2022-12-18T13:02:54.789Z,3.01
2022-12-18T13:05:28.959Z,2.90
2022-12-18T13:08:01.377Z,3.04
2022-12-18T13:10:35.393Z,3.25
2022-12-18T13:13:05.548Z,3.34
2022-12-18T13:15:41.846Z,3.17
2022-12-18T13:18:19.518Z,3.04
2022-12-18T13:20:54.399Z,2.81
2022-12-18T13:23:42.834Z,2.96
2022-12-18T13:26:37.970Z,2.99
2022-12-18T13:29:07.123Z,3.09
2022-12-18T13:32:05.611Z,3.19
2022-12-18T13:34:37.385Z,3.15
2022-12-18T13:37:43.957Z,3.11
2022-12-18T13:40:57.525Z,2.93
2022-12-18T13:43:38.611Z,2.96
2022-12-18T13:46:21.385Z,2.73
2022-12-18T13:48:59.659Z,2.95
2022-12-18T13:51:28.729Z,3.03
2022-12-18T13:54:00.107Z,3.11
2022-12-18T13:56:29.909Z,2.96
2022-12-18T13:59:24.610Z,2.94
2022-12-18T14:01:55.576Z,3.02
2022-12-18T14:04:26.549Z,3.16
2022-12-18T14:06:57.514Z,3.04
2022-12-18T14:09:29.156Z,2.96
2022-12-18T14:12:13.126Z,2.81
2022-12-18T14:14:46.440Z,3.03
2022-12-18T14:17:17.935Z,2.98
2022-12-18T14:19:48.505Z,3.04
2022-12-18T14:22:19.243Z,2.97
2022-12-18T14:24:47.874Z,3.04
2022-12-18T14:27:24.119Z,2.78
2022-12-18T14:29:53.861Z,2.80
2022-12-18T14:32:23.496Z,2.90
2022-12-18T14:34:52.968Z,2.88
2022-12-18T14:37:25.199Z,2.86
2022-12-18T14:39:59.090Z,2.84
2022-12-18T14:42:29.364Z,2.84
2022-12-18T14:45:41.347Z,2.72
2022-12-18T14:48:19.098Z,2.76
2022-12-18T14:51:00.447Z,2.58
2022-12-18T14:53:36.927Z,2.59
2022-12-18T14:56:12.424Z,2.42
2022-12-18T14:58:40.833Z,2.55
2022-12-18T15:01:10.459Z,2.44
2022-12-18T15:03:45.908Z,2.67
2022-12-18T15:06:19.776Z,2.55
2022-12-18T15:08:48.575Z,2.29
2022-12-18T15:11:31.776Z,2.45
2022-12-18T15:14:01.743Z,2.65
2022-12-18T15:16:31.452Z,2.58
2022-12-18T15:18:59.764Z,2.66
2022-12-18T15:21:31.667Z,2.53
2022-12-18T15:24:01.509Z,2.67
2022-12-18T15:26:39.620Z,2.58
2022-12-18T15:29:11.366Z,2.80
2022-12-18T15:31:46.530Z,2.81
2022-12-18T15:34:21.343Z,2.68
2022-12-18T15:36:49.711Z,2.43
2022-12-18T15:39:18.264Z,2.78
2022-12-18T15:42:00.752Z,2.70
2022-12-18T15:44:29.435Z,2.79
2022-12-18T15:46:59.188Z,2.82
2022-12-18T15:49:27.742Z,2.96
2022-12-18T15:51:58.786Z,2.99
2022-12-18T15:54:41.073Z,3.05
2022-12-18T15:57:27.586Z,3.03
2022-12-18T15:59:59.512Z,3.01
2022-12-18T16:02:30.101Z,3.06
2022-12-18T16:04:58.789Z,2.99
2022-12-18T16:07:30.309Z,2.99
2022-12-18T16:10:02.697Z,3.00
2022-12-18T16:12:31.150Z,3.03
2022-12-18T16:14:59.459Z,3.10
2022-12-18T16:17:29.176Z,3.12
2022-12-18T16:19:57.460Z,3.12
2022-12-18T16:22:27.850Z,3.21
2022-12-18T16:24:57.294Z,3.12
2022-12-18T16:27:26.629Z,3.09
2022-12-18T16:29:54.987Z,2.76
2022-12-18T16:32:24.813Z,2.83
2022-12-18T16:34:54.762Z,2.87
2022-12-18T16:37:23.023Z,2.91
2022-12-18T16:39:51.225Z,2.95
2022-12-18T16:42:21.473Z,3.10
2022-12-18T16:44:51.151Z,3.04
2022-12-18T16:47:24.887Z,3.23
2022-12-18T16:49:56.778Z,3.32
2022-12-18T16:52:25.887Z,3.34
2022-12-18T16:54:54.224Z,3.17
2022-12-18T16:57:25.333Z,3.16
2022-12-18T16:59:54.235Z,3.16
2022-12-18T17:02:24.521Z,3.18
2022-12-18T17:04:56.753Z,3.28
2022-12-18T17:07:25.434Z,3.31
2022-12-18T17:09:54.329Z,3.46
2022-12-18T17:12:23.314Z,3.42
2022-12-18T17:14:51.533Z,3.24
2022-12-18T17:17:22.817Z,3.12
2022-12-18T17:19:51.527Z,3.20
2022-12-18T17:22:21.541Z,3.35
2022-12-18T17:24:49.910Z,3.46
2022-12-18T17:27:18.200Z,3.17
2022-12-18T17:29:48.227Z,3.40
2022-12-18T17:32:17.034Z,3.39
2022-12-18T17:34:45.306Z,3.36
2022-12-18T17:37:13.742Z,3.50
2022-12-18T17:39:43.546Z,3.54
2022-12-18T17:42:15.021Z,3.35
2022-12-18T17:44:44.516Z,3.55
2022-12-18T17:47:13.248Z,3.59
2022-12-18T17:49:42.022Z,3.67
2022-12-18T17:52:10.492Z,3.73
2022-12-18T17:54:41.516Z,3.82
2022-12-18T17:57:11.477Z,3.69
2022-12-18T17:59:39.796Z,3.49
2022-12-18T18:02:08.536Z,3.71
2022-12-18T18:04:37.091Z,3.52
2022-12-18T18:07:05.326Z,3.60
2022-12-18T18:09:33.896Z,3.54
2022-12-18T18:12:19.873Z,3.74
2022-12-18T18:14:49.705Z,3.89
2022-12-18T18:17:18.425Z,3.63
2022-12-18T18:19:49.634Z,3.84
2022-12-18T18:22:18.731Z,3.85
2022-12-18T18:24:47.363Z,3.94
2022-12-18T18:27:16.357Z,3.83
2022-12-18T18:29:45.155Z,3.87
2022-12-18T18:32:14.815Z,3.88
2022-12-18T18:34:43.107Z,4.03
2022-12-18T18:37:12.228Z,3.99
2022-12-18T18:39:40.743Z,4.07
2022-12-18T18:42:09.158Z,4.00
2022-12-18T18:44:37.868Z,3.84
2022-12-18T18:47:06.331Z,3.95
2022-12-18T18:49:39.281Z,4.15
2022-12-18T18:52:08.348Z,4.02
2022-12-18T18:54:36.623Z,4.15
2022-12-18T18:57:20.241Z,4.01
2022-12-18T18:59:49.595Z,4.13
2022-12-18T19:02:19.026Z,4.00
2022-12-18T19:04:48.714Z,3.85
2022-12-18T19:07:26.142Z,3.88
2022-12-18T19:10:04.110Z,3.92
2022-12-18T19:12:51.966Z,3.83
2022-12-18T19:15:20.323Z,3.87
2022-12-18T19:17:48.614Z,3.85
2022-12-18T19:20:18.577Z,3.97
2022-12-18T19:22:55.217Z,3.93
2022-12-18T19:25:40.411Z,3.88
2022-12-18T19:28:17.367Z,3.92
2022-12-18T19:30:56.351Z,4.01
2022-12-18T19:33:45.204Z,3.97
2022-12-18T19:36:19.611Z,3.94
2022-12-18T19:38:48.191Z,4.00
2022-12-18T19:41:17.906Z,4.12
2022-12-18T19:43:47.513Z,4.12
2022-12-18T19:46:17.986Z,3.88
2022-12-18T19:48:47.308Z,3.88
2022-12-18T19:51:18.777Z,3.94
2022-12-18T19:53:47.716Z,4.07
2022-12-18T19:56:18.027Z,4.21
2022-12-18T19:58:46.633Z,4.16
2022-12-18T20:01:16.890Z,4.10
2022-12-18T20:03:50.445Z,4.05
2022-12-18T20:06:27.790Z,3.95
2022-12-18T20:09:00.447Z,4.03
2022-12-18T20:11:30.144Z,4.02
2022-12-18T20:13:58.607Z,4.10
2022-12-18T20:16:30.216Z,4.03
2022-12-18T20:18:59.323Z,3.94
2022-12-18T20:21:29.060Z,4.18
2022-12-18T20:23:59.123Z,4.22
2022-12-18T20:26:27.657Z,4.04
2022-12-18T20:28:56.234Z,3.95
2022-12-18T20:31:24.731Z,4.04
2022-12-18T20:33:53.356Z,4.05
2022-12-18T20:36:28.185Z,4.07
2022-12-18T20:39:01.819Z,4.17
2022-12-18T20:41:35.035Z,4.37
2022-12-18T20:44:10.983Z,4.07
2022-12-18T20:46:51.033Z,4.09
2022-12-18T20:49:19.292Z,3.99
2022-12-18T20:51:50.410Z,4.05
2022-12-18T20:54:20.110Z,4.18
2022-12-18T20:56:48.495Z,4.33
2022-12-18T20:59:16.694Z,4.15
2022-12-18T21:01:48.605Z,3.98
2022-12-18T21:04:18.655Z,4.02
2022-12-18T21:06:53.093Z,4.10
2022-12-18T21:09:25.570Z,4.06
2022-12-18T21:12:14.148Z,4.07
2022-12-18T21:14:43.238Z,4.23
2022-12-18T21:17:12.305Z,4.04
2022-12-18T21:19:40.701Z,4.14
2022-12-18T21:22:09.660Z,4.15
2022-12-18T21:24:39.491Z,4.29
2022-12-18T21:27:07.751Z,4.34
2022-12-18T21:29:36.268Z,4.62
2022-12-18T21:32:05.758Z,4.42
2022-12-18T21:34:34.534Z,4.38
2022-12-18T21:37:03.128Z,4.36
2022-12-18T21:39:31.926Z,4.46
2022-12-18T21:42:18.890Z,4.54
2022-12-18T21:44:49.407Z,4.57
2022-12-18T21:47:22.552Z,4.27
2022-12-18T21:49:53.194Z,4.34
2022-12-18T21:52:29.823Z,4.37
2022-12-18T21:55:08.015Z,4.37
2022-12-18T21:57:39.503Z,4.50
2022-12-18T22:00:18.430Z,4.43
2022-12-18T22:02:48.473Z,4.58
2022-12-18T22:05:36.225Z,4.39
2022-12-18T22:08:04.603Z,4.50
2022-12-18T22:10:33.332Z,4.52
2022-12-18T22:13:03.017Z,4.38
2022-12-18T22:15:31.358Z,4.35
2022-12-18T22:18:00.249Z,4.49
2022-12-18T22:20:29.709Z,4.35
2022-12-18T22:22:58.601Z,4.61
2022-12-18T22:25:27.617Z,4.53
2022-12-18T22:28:13.233Z,4.62
2022-12-18T22:30:42.684Z,4.74
2022-12-18T22:33:10.711Z,4.47
2022-12-18T22:35:38.780Z,4.56
2022-12-18T22:38:07.017Z,4.60
2022-12-18T22:40:35.033Z,4.65
2022-12-18T22:43:03.134Z,4.43
2022-12-18T22:45:31.181Z,4.65
2022-12-18T22:48:02.028Z,4.50
2022-12-18T22:50:30.191Z,4.80
2022-12-18T22:52:58.160Z,4.80
2022-12-18T22:55:26.199Z,4.82
2022-12-18T22:57:54.244Z,4.64
2022-12-18T23:00:24.119Z,4.76
2022-12-18T23:02:59.352Z,4.87
2022-12-18T23:05:30.608Z,4.75
2022-12-18T23:07:59.233Z,4.88
2022-12-18T23:10:27.522Z,4.91
2022-12-18T23:12:55.829Z,4.93
2022-12-18T23:15:27.929Z,5.01
2022-12-18T23:17:57.214Z,5.16
2022-12-18T23:20:25.429Z,4.98
2022-12-18T23:22:54.801Z,5.09
2022-12-18T23:25:22.839Z,5.15
2022-12-18T23:27:50.843Z,5.23
2022-12-18T23:30:19.034Z,5.40
2022-12-18T23:32:47.147Z,5.27
2022-12-18T23:35:15.868Z,5.33
2022-12-18T23:38:00.676Z,5.20
2022-12-18T23:40:31.013Z,5.17
2022-12-18T23:43:00.425Z,5.17
2022-12-18T23:45:28.496Z,5.27
2022-12-18T23:47:56.526Z,5.23
2022-12-18T23:50:29.041Z,5.34
2022-12-18T23:53:05.317Z,5.27
2022-12-18T23:55:39.688Z,5.43
2022-12-18T23:58:08.599Z,5.15
